Time,TemperatureF,DewpointF,PressureIn,WindDirection,WindDirectionDegrees,WindSpeedMPH,WindSpeedGustMPH,Humidity,HourlyPrecipIn,Conditions,Clouds,dailyrainin,SolarRadiationWatts/m^2,SoftwareType,DateUTC
2013-08-23 00:04:00,52.9,49.5,29.98,NW,316,6.0,6.0,88,0.00,,,0.00,0.0,meteohub,2013-08-23 06:04:00,
2013-08-23 00:09:00,52.5,49.5,29.98,NW,316,4.0,6.0,89,0.00,,,0.00,0.0,meteohub,2013-08-23 06:09:00,
2013-08-23 00:14:00,52.3,49.5,29.98,NW,316,0.0,6.0,90,0.00,,,0.00,0.0,meteohub,2013-08-23 06:14:00,
2013-08-23 00:19:00,52.2,49.3,29.98,NW,316,2.0,6.0,90,0.00,,,0.00,0.0,meteohub,2013-08-23 06:19:00,
2013-08-23 00:24:00,52.2,49.1,29.97,NW,316,0.0,6.0,89,0.00,,,0.00,0.0,meteohub,2013-08-23 06:24:00,
2013-08-23 00:30:00,52.3,49.8,29.97,NW,316,0.0,5.0,91,0.00,,,0.00,0.0,meteohub,2013-08-23 06:30:00,
2013-08-23 00:35:00,52.3,49.8,29.97,NW,316,5.0,5.0,91,0.01,,,0.02,0.0,meteohub,2013-08-23 06:35:00,
2013-08-23 00:40:00,52.3,49.8,29.97,NW,316,3.0,6.0,91,0.02,,,0.02,0.0,meteohub,2013-08-23 06:40:00,
2013-08-23 00:45:00,52.3,50.0,29.97,NW,316,10.0,10.0,92,0.02,,,0.02,0.0,meteohub,2013-08-23 06:45:00,
2013-08-23 00:50:00,52.9,50.4,29.97,NW,304,10.0,11.0,91,0.02,,,0.02,0.0,meteohub,2013-08-23 06:50:00,
2013-08-23 00:56:00,53.2,50.0,29.96,WNW,301,4.0,12.0,89,0.02,,,0.02,0.0,meteohub,2013-08-23 06:56:00,
2013-08-23 01:01:00,53.2,50.0,29.96,WNW,301,1.0,12.0,89,0.02,,,0.02,0.0,meteohub,2013-08-23 07:01:00,
2013-08-23 01:06:00,53.2,49.8,29.96,WNW,301,5.0,12.0,88,0.02,,,0.02,0.0,meteohub,2013-08-23 07:06:00,
2013-08-23 01:11:00,53.1,49.3,29.96,NW,310,9.0,10.0,87,0.02,,,0.02,0.0,meteohub,2013-08-23 07:11:00,
2013-08-23 01:16:00,53.2,48.9,29.96,NW,316,7.0,13.0,85,0.02,,,0.02,0.0,meteohub,2013-08-23 07:16:00,
2013-08-23 01:22:00,53.2,47.8,29.95,NW,318,6.0,13.0,82,0.02,,,0.02,0.0,meteohub,2013-08-23 07:22:00,
2013-08-23 01:27:00,53.2,48.9,29.95,NW,318,5.0,10.0,85,0.02,,,0.02,0.0,meteohub,2013-08-23 07:27:00,
2013-08-23 01:32:00,53.1,48.4,29.94,NW,318,0.0,10.0,84,0.01,,,0.02,0.0,meteohub,2013-08-23 07:32:00,
2013-08-23 01:37:00,52.9,47.8,29.94,NNW,337,4.0,9.0,83,0.00,,,0.02,0.0,meteohub,2013-08-23 07:37:00,
2013-08-23 01:42:00,53.1,47.3,29.94,NNW,335,0.0,7.0,81,0.00,,,0.02,0.0,meteohub,2013-08-23 07:42:00,
2013-08-23 01:48:00,53.2,47.3,29.94,NW,317,5.0,9.0,80,0.00,,,0.02,0.0,meteohub,2013-08-23 07:48:00,
2013-08-23 01:53:00,53.6,47.3,29.94,NW,310,12.0,12.0,79,0.00,,,0.02,0.0,meteohub,2013-08-23 07:53:00,
2013-08-23 01:58:00,54.0,47.3,29.94,WNW,299,24.0,24.0,78,0.00,,,0.02,0.0,meteohub,2013-08-23 07:58:00,
2013-08-23 02:03:00,53.8,47.5,29.94,NW,306,21.0,28.0,79,0.00,,,0.02,0.0,meteohub,2013-08-23 08:03:00,
2013-08-23 02:08:00,53.1,46.8,29.94,WNW,303,20.0,28.0,79,0.00,,,0.02,0.0,meteohub,2013-08-23 08:08:00,
2013-08-23 02:13:00,53.1,47.3,29.93,WNW,303,18.0,28.0,81,0.01,,,0.03,0.0,meteohub,2013-08-23 08:13:00,
2013-08-23 02:19:00,52.5,47.8,29.93,NW,307,14.0,27.0,84,0.01,,,0.03,0.0,meteohub,2013-08-23 08:19:00,
2013-08-23 02:24:00,52.2,47.5,29.92,NW,308,14.0,23.0,84,0.02,,,0.04,0.0,meteohub,2013-08-23 08:24:00,
2013-08-23 02:29:00,52.2,47.8,29.92,NW,322,15.0,22.0,85,0.02,,,0.04,0.0,meteohub,2013-08-23 08:29:00,
2013-08-23 02:34:00,52.5,47.5,29.91,NW,314,14.0,19.0,83,0.02,,,0.04,0.0,meteohub,2013-08-23 08:34:00,
2013-08-23 02:39:00,52.7,47.3,29.90,NW,317,11.0,19.0,82,0.02,,,0.04,0.0,meteohub,2013-08-23 08:39:00,
2013-08-23 02:45:00,52.9,47.3,29.89,NW,314,13.0,19.0,81,0.02,,,0.04,0.0,meteohub,2013-08-23 08:45:00,
2013-08-23 02:50:00,52.9,47.5,29.89,NW,305,12.0,19.0,82,0.02,,,0.04,0.0,meteohub,2013-08-23 08:50:00,
2013-08-23 02:55:00,52.5,47.5,29.89,NW,305,11.0,16.0,83,0.02,,,0.04,0.0,meteohub,2013-08-23 08:55:00,
2013-08-23 03:00:00,52.5,47.1,29.89,NW,310,12.0,16.0,82,0.02,,,0.04,0.0,meteohub,2013-08-23 09:00:00,
2013-08-23 03:05:00,52.9,46.9,29.89,NW,311,10.0,14.0,80,0.01,,,0.04,0.0,meteohub,2013-08-23 09:05:00,
2013-08-23 03:11:00,53.2,46.9,29.89,NW,317,7.0,14.0,79,0.01,,,0.04,0.0,meteohub,2013-08-23 09:11:00,
2013-08-23 03:16:00,53.1,47.3,29.89,NW,317,0.0,13.0,81,0.01,,,0.04,0.0,meteohub,2013-08-23 09:16:00,
2013-08-23 03:21:00,52.9,47.8,29.89,NW,317,0.0,11.0,83,0.00,,,0.04,0.0,meteohub,2013-08-23 09:21:00,
2013-08-23 03:26:00,52.5,47.5,29.89,NW,317,0.0,8.0,83,0.00,,,0.04,0.0,meteohub,2013-08-23 09:26:00,
2013-08-23 03:31:00,52.3,47.7,29.88,NW,317,0.0,4.0,84,0.00,,,0.04,0.0,meteohub,2013-08-23 09:31:00,
2013-08-23 03:36:00,52.0,47.7,29.88,NW,317,0.0,0.0,85,0.00,,,0.04,0.0,meteohub,2013-08-23 09:36:00,
2013-08-23 03:42:00,51.6,47.5,29.88,NW,317,0.0,0.0,86,0.00,,,0.04,0.0,meteohub,2013-08-23 09:42:00,
2013-08-23 03:47:00,51.4,47.5,29.88,NW,317,5.0,0.0,86,0.00,,,0.04,0.0,meteohub,2013-08-23 09:47:00,
2013-08-23 03:52:00,52.0,46.4,29.88,NW,317,6.0,7.0,81,0.00,,,0.04,0.0,meteohub,2013-08-23 09:52:00,
2013-08-23 03:57:00,53.2,47.5,29.88,NW,317,0.0,9.0,81,0.00,,,0.04,0.0,meteohub,2013-08-23 09:57:00,
2013-08-23 04:02:00,52.9,47.3,29.88,NW,317,0.0,11.0,81,0.00,,,0.04,0.0,meteohub,2013-08-23 10:02:00,
2013-08-23 04:08:00,52.3,47.7,29.88,NW,317,2.0,11.0,84,0.00,,,0.04,0.0,meteohub,2013-08-23 10:08:00,
2013-08-23 04:13:00,51.4,47.1,29.87,NW,317,4.0,6.0,85,0.00,,,0.04,0.0,meteohub,2013-08-23 10:13:00,
2013-08-23 04:18:00,51.3,47.3,29.87,NW,317,5.0,6.0,86,0.00,,,0.04,0.0,meteohub,2013-08-23 10:18:00,
2013-08-23 04:23:00,51.6,46.9,29.87,NW,317,6.0,7.0,84,0.00,,,0.04,0.0,meteohub,2013-08-23 10:23:00,
2013-08-23 04:28:00,52.0,46.4,29.87,NW,317,4.0,7.0,81,0.00,,,0.04,0.0,meteohub,2013-08-23 10:28:00,
2013-08-23 04:34:00,52.0,46.6,29.87,NW,317,4.0,8.0,82,0.00,,,0.04,0.0,meteohub,2013-08-23 10:34:00,
2013-08-23 04:39:00,52.0,46.6,29.87,NW,317,6.0,8.0,82,0.00,,,0.04,0.0,meteohub,2013-08-23 10:39:00,
2013-08-23 04:44:00,52.2,46.2,29.86,NW,317,7.0,8.0,80,0.00,,,0.04,0.0,meteohub,2013-08-23 10:44:00,
2013-08-23 04:49:00,52.3,46.4,29.87,NW,317,4.0,7.0,80,0.00,,,0.04,0.0,meteohub,2013-08-23 10:49:00,
2013-08-23 04:54:00,52.3,45.7,29.87,NW,317,5.0,8.0,78,0.00,,,0.04,0.0,meteohub,2013-08-23 10:54:00,
2013-08-23 05:00:00,52.5,46.2,29.87,NW,317,4.0,8.0,79,0.00,,,0.04,0.0,meteohub,2013-08-23 11:00:00,
2013-08-23 05:05:00,52.2,45.9,29.87,NW,317,6.0,7.0,79,0.00,,,0.04,0.0,meteohub,2013-08-23 11:05:00,
2013-08-23 05:10:00,52.2,45.9,29.87,NW,317,1.0,7.0,79,0.00,,,0.04,0.0,meteohub,2013-08-23 11:10:00,
2013-08-23 05:15:00,52.3,45.7,29.87,NW,317,4.0,8.0,78,0.00,,,0.04,0.0,meteohub,2013-08-23 11:15:00,
2013-08-23 05:20:00,52.3,46.8,29.87,NW,317,6.0,8.0,81,0.00,,,0.04,0.0,meteohub,2013-08-23 11:20:00,
2013-08-23 05:25:00,51.6,45.7,29.87,NW,317,4.0,7.0,80,0.00,,,0.04,0.0,meteohub,2013-08-23 11:25:00,
2013-08-23 05:31:00,51.4,46.4,29.87,NW,317,1.0,7.0,83,0.00,,,0.04,0.0,meteohub,2013-08-23 11:31:00,
2013-08-23 05:36:00,51.1,46.8,29.87,NW,317,1.0,6.0,85,0.00,,,0.04,0.0,meteohub,2013-08-23 11:36:00,
2013-08-23 05:41:00,50.7,46.9,29.86,NW,317,2.0,5.0,87,0.00,,,0.04,0.0,meteohub,2013-08-23 11:41:00,
2013-08-23 05:46:00,50.2,46.2,29.86,NW,317,5.0,5.0,86,0.00,,,0.04,0.0,meteohub,2013-08-23 11:46:00,
2013-08-23 05:51:00,50.4,45.3,29.86,NW,317,2.0,7.0,83,0.00,,,0.04,0.0,meteohub,2013-08-23 11:51:00,
2013-08-23 05:57:00,50.7,46.4,29.86,NW,318,7.0,7.0,85,0.00,,,0.04,0.0,meteohub,2013-08-23 11:57:00,
2013-08-23 06:02:00,52.0,45.7,29.86,NE,38,6.0,12.0,79,0.00,,,0.04,0.0,meteohub,2013-08-23 12:02:00,
2013-08-23 06:07:00,54.1,46.0,29.86,NNW,340,4.0,12.0,74,0.00,,,0.04,0.0,meteohub,2013-08-23 12:07:00,
2013-08-23 06:12:00,55.6,46.4,29.85,NW,325,0.0,9.0,71,0.00,,,0.04,0.0,meteohub,2013-08-23 12:12:00,
2013-08-23 06:17:00,55.9,47.1,29.86,NW,325,5.0,9.0,72,0.00,,,0.04,0.0,meteohub,2013-08-23 12:17:00,
2013-08-23 06:22:00,55.6,47.1,29.85,NW,325,3.0,9.0,73,0.00,,,0.04,7.0,meteohub,2013-08-23 12:22:00,
2013-08-23 06:28:00,55.2,45.7,29.85,NW,322,2.0,7.0,70,0.00,,,0.04,18.0,meteohub,2013-08-23 12:28:00,
2013-08-23 06:33:00,56.5,45.3,29.85,NNW,331,10.0,10.0,66,0.00,,,0.04,21.0,meteohub,2013-08-23 12:33:00,
2013-08-23 06:38:00,57.6,47.1,29.85,South,185,2.0,13.0,68,0.00,,,0.04,25.0,meteohub,2013-08-23 12:38:00,
2013-08-23 06:43:00,58.3,46.6,29.85,NW,321,1.0,13.0,65,0.00,,,0.04,26.0,meteohub,2013-08-23 12:43:00,
2013-08-23 06:48:00,58.6,45.7,29.86,ESE,117,5.0,13.0,62,0.00,,,0.04,30.0,meteohub,2013-08-23 12:48:00,
2013-08-23 06:54:00,58.8,45.3,29.85,NW,314,2.0,12.0,61,0.00,,,0.04,35.0,meteohub,2013-08-23 12:54:00,
2013-08-23 06:59:00,58.8,45.0,29.86,NW,321,5.0,10.0,60,0.00,,,0.04,40.0,meteohub,2013-08-23 12:59:00,
2013-08-23 07:04:00,58.6,45.3,29.86,NW,320,2.0,9.0,61,0.00,,,0.04,49.0,meteohub,2013-08-23 13:04:00,
2013-08-23 07:09:00,58.6,46.6,29.86,NW,320,4.0,9.0,64,0.00,,,0.04,113.0,meteohub,2013-08-23 13:09:00,
2013-08-23 07:14:00,58.8,47.8,29.86,NW,320,1.0,5.0,67,0.00,,,0.04,132.0,meteohub,2013-08-23 13:14:00,
2013-08-23 07:20:00,58.6,48.9,29.85,NW,320,5.0,6.0,70,0.00,,,0.04,156.0,meteohub,2013-08-23 13:20:00,
2013-08-23 07:25:00,58.5,44.6,29.85,NW,321,0.0,6.0,60,0.00,,,0.04,176.0,meteohub,2013-08-23 13:25:00,
2013-08-23 07:30:00,59.2,45.3,29.86,NW,322,7.0,7.0,60,0.00,,,0.04,197.0,meteohub,2013-08-23 13:30:00,
2013-08-23 07:35:00,61.2,40.8,29.86,NNW,330,13.0,13.0,47,0.00,,,0.04,102.0,meteohub,2013-08-23 13:35:00,
2013-08-23 07:41:00,63.1,43.2,29.86,NW,323,16.0,19.0,48,0.00,,,0.04,105.0,meteohub,2013-08-23 13:41:00,
2013-08-23 07:46:00,64.0,43.3,29.85,ENE,62,0.0,19.0,47,0.00,,,0.04,216.0,meteohub,2013-08-23 13:46:00,
2013-08-23 07:51:00,64.2,44.6,29.86,NW,315,2.0,19.0,49,0.00,,,0.04,125.0,meteohub,2013-08-23 13:51:00,
2013-08-23 07:56:00,64.4,45.3,29.86,SSE,168,0.0,18.0,50,0.00,,,0.04,146.0,meteohub,2013-08-23 13:56:00,
2013-08-23 08:01:00,64.6,46.6,29.86,SSE,168,0.0,8.0,52,0.00,,,0.04,165.0,meteohub,2013-08-23 14:01:00,
2013-08-23 08:07:00,64.6,46.6,29.86,West,262,0.0,8.0,52,0.00,,,0.04,202.0,meteohub,2013-08-23 14:07:00,
2013-08-23 08:12:00,64.6,47.1,29.86,WSW,241,4.0,4.0,53,0.00,,,0.04,373.0,meteohub,2013-08-23 14:12:00,
2013-08-23 08:17:00,64.6,46.6,29.86,ENE,74,0.0,6.0,52,0.00,,,0.04,452.0,meteohub,2013-08-23 14:17:00,
2013-08-23 08:22:00,64.8,46.8,29.86,NW,314,0.0,9.0,52,0.00,,,0.04,482.0,meteohub,2013-08-23 14:22:00,
2013-08-23 08:27:00,64.8,46.8,29.87,East,87,4.0,9.0,52,0.00,,,0.04,394.0,meteohub,2013-08-23 14:27:00,
2013-08-23 08:32:00,64.8,46.8,29.87,East,100,0.0,9.0,52,0.00,,,0.04,169.0,meteohub,2013-08-23 14:32:00,
2013-08-23 08:38:00,64.6,46.6,29.87,North,350,5.0,9.0,52,0.00,,,0.04,204.0,meteohub,2013-08-23 14:38:00,
2013-08-23 08:43:00,64.2,46.2,29.87,NNW,344,1.0,9.0,52,0.00,,,0.04,172.0,meteohub,2013-08-23 14:43:00,
2013-08-23 08:48:00,64.0,46.6,29.87,NNW,327,4.0,9.0,53,0.00,,,0.04,244.0,meteohub,2013-08-23 14:48:00,
2013-08-23 08:53:00,63.7,45.7,29.88,NW,316,2.0,9.0,52,0.00,,,0.04,508.0,meteohub,2013-08-23 14:53:00,
2013-08-23 08:58:00,63.9,46.4,29.88,NW,316,0.0,9.0,53,0.00,,,0.04,475.0,meteohub,2013-08-23 14:58:00,
2013-08-23 09:04:00,64.0,46.6,29.88,NW,316,4.0,9.0,53,0.00,,,0.04,629.0,meteohub,2013-08-23 15:04:00,
2013-08-23 09:09:00,64.4,46.9,29.88,NW,316,1.0,6.0,53,0.00,,,0.04,431.0,meteohub,2013-08-23 15:09:00,
2013-08-23 09:14:00,64.8,46.2,29.88,ENE,65,0.0,5.0,51,0.00,,,0.04,371.0,meteohub,2013-08-23 15:14:00,
2013-08-23 09:19:00,64.9,46.4,29.88,ENE,65,0.0,5.0,51,0.00,,,0.04,213.0,meteohub,2013-08-23 15:19:00,
2013-08-23 09:24:00,65.1,46.6,29.88,ENE,65,0.0,5.0,51,0.00,,,0.04,218.0,meteohub,2013-08-23 15:24:00,
2013-08-23 09:30:00,65.1,45.5,29.88,ENE,65,0.0,5.0,49,0.00,,,0.04,206.0,meteohub,2013-08-23 15:30:00,
2013-08-23 09:35:00,65.5,45.9,29.89,ENE,65,0.0,4.0,49,0.00,,,0.04,216.0,meteohub,2013-08-23 15:35:00,
2013-08-23 09:40:00,65.7,47.5,29.89,ENE,68,2.0,2.0,52,0.00,,,0.04,230.0,meteohub,2013-08-23 15:40:00,
2013-08-23 09:45:00,65.7,48.0,29.89,ENE,66,1.0,6.0,53,0.00,,,0.04,271.0,meteohub,2013-08-23 15:45:00,
2013-08-23 09:50:00,65.7,47.1,29.89,East,83,0.0,6.0,51,0.00,,,0.04,262.0,meteohub,2013-08-23 15:50:00,
2013-08-23 09:56:00,65.7,47.1,29.89,NW,320,4.0,8.0,51,0.00,,,0.04,257.0,meteohub,2013-08-23 15:56:00,
2013-08-23 10:01:00,65.8,47.7,29.89,North,3,0.0,8.0,52,0.00,,,0.04,443.0,meteohub,2013-08-23 16:01:00,
2013-08-23 10:06:00,66.4,47.1,29.88,ENE,62,0.0,7.0,50,0.00,,,0.04,250.0,meteohub,2013-08-23 16:06:00,
2013-08-23 10:11:00,66.6,47.3,29.88,ENE,72,1.0,6.0,50,0.00,,,0.04,243.0,meteohub,2013-08-23 16:11:00,
2013-08-23 10:16:00,67.1,46.8,29.88,NW,322,5.0,6.0,48,0.00,,,0.04,271.0,meteohub,2013-08-23 16:16:00,
2013-08-23 10:21:00,67.1,46.8,29.88,NW,322,4.0,8.0,48,0.00,,,0.04,230.0,meteohub,2013-08-23 16:21:00,
2013-08-23 10:27:00,67.3,46.4,29.88,NW,322,0.0,8.0,47,0.00,,,0.04,253.0,meteohub,2013-08-23 16:27:00,
2013-08-23 10:32:00,67.3,46.9,29.88,NW,322,1.0,8.0,48,0.00,,,0.04,258.0,meteohub,2013-08-23 16:32:00,
2013-08-23 10:37:00,67.6,46.8,29.88,NW,321,4.0,4.0,47,0.00,,,0.04,279.0,meteohub,2013-08-23 16:37:00,
2013-08-23 10:42:00,68.0,46.4,29.87,NW,322,0.0,10.0,46,0.00,,,0.04,148.0,meteohub,2013-08-23 16:42:00,
2013-08-23 10:48:00,68.4,46.2,29.87,NNE,20,4.0,10.0,45,0.00,,,0.04,371.0,meteohub,2013-08-23 16:48:00,
2013-08-23 10:53:00,68.5,46.9,29.87,ENE,72,5.0,10.0,46,0.00,,,0.04,127.0,meteohub,2013-08-23 16:53:00,
2013-08-23 10:58:00,68.5,46.4,29.87,ENE,74,2.0,6.0,45,0.00,,,0.04,105.0,meteohub,2013-08-23 16:58:00,
2013-08-23 11:03:00,68.5,46.4,29.87,East,84,5.0,6.0,45,0.00,,,0.04,98.0,meteohub,2013-08-23 17:03:00,
2013-08-23 11:08:00,68.4,45.0,29.86,SE,129,1.0,7.0,43,0.00,,,0.04,146.0,meteohub,2013-08-23 17:08:00,
2013-08-23 11:14:00,68.4,45.7,29.86,ESE,120,8.0,8.0,44,0.00,,,0.04,148.0,meteohub,2013-08-23 17:14:00,
2013-08-23 11:19:00,68.5,45.7,29.86,SE,124,1.0,7.0,44,0.00,,,0.04,84.0,meteohub,2013-08-23 17:19:00,
2013-08-23 11:24:00,68.7,46.6,29.86,SE,124,0.0,9.0,45,0.00,,,0.04,98.0,meteohub,2013-08-23 17:24:00,
2013-08-23 11:29:00,68.7,45.9,29.86,SE,124,0.0,9.0,44,0.00,,,0.04,116.0,meteohub,2013-08-23 17:29:00,
2013-08-23 11:34:00,68.5,45.7,29.86,SE,124,0.0,7.0,44,0.00,,,0.04,167.0,meteohub,2013-08-23 17:34:00,
2013-08-23 11:40:00,68.2,48.9,29.86,SE,126,0.0,2.0,50,0.00,,,0.04,146.0,meteohub,2013-08-23 17:40:00,
2013-08-23 11:45:00,67.6,49.8,29.86,SE,131,1.0,5.0,53,0.00,,,0.04,130.0,meteohub,2013-08-23 17:45:00,
2013-08-23 11:50:00,67.3,50.0,29.86,West,269,1.0,5.0,54,0.00,,,0.04,137.0,meteohub,2013-08-23 17:50:00,
2013-08-23 11:55:00,66.9,47.7,29.85,South,185,1.0,10.0,50,0.00,,,0.04,977.0,meteohub,2013-08-23 17:55:00,
2013-08-23 12:00:00,67.5,47.1,29.85,South,180,0.0,10.0,48,0.00,,,0.04,1025.0,meteohub,2013-08-23 18:00:00,
2013-08-23 12:06:00,68.2,48.9,29.85,South,190,1.0,10.0,50,0.00,,,0.04,130.0,meteohub,2013-08-23 18:06:00,
2013-08-23 12:11:00,68.4,47.8,29.85,WSW,238,0.0,7.0,48,0.00,,,0.04,969.0,meteohub,2013-08-23 18:11:00,
2013-08-23 12:16:00,69.3,50.4,29.85,SW,228,1.0,7.0,51,0.00,,,0.04,911.0,meteohub,2013-08-23 18:16:00,
2013-08-23 12:21:00,70.2,48.9,29.85,South,189,1.0,7.0,47,0.00,,,0.04,969.0,meteohub,2013-08-23 18:21:00,
2013-08-23 12:26:00,69.6,47.8,29.84,SSE,154,2.0,9.0,46,0.00,,,0.04,1027.0,meteohub,2013-08-23 18:26:00,
2013-08-23 12:32:00,69.4,48.4,29.85,WNW,293,0.0,9.0,47,0.00,,,0.04,1016.0,meteohub,2013-08-23 18:32:00,
2013-08-23 12:37:00,69.3,47.7,29.85,WNW,293,1.0,9.0,46,0.00,,,0.04,178.0,meteohub,2013-08-23 18:37:00,
2013-08-23 12:42:00,68.4,48.4,29.85,WNW,292,1.0,8.0,49,0.00,,,0.04,220.0,meteohub,2013-08-23 18:42:00,
2013-08-23 12:47:00,68.2,48.9,29.84,West,281,0.0,8.0,50,0.00,,,0.04,1005.0,meteohub,2013-08-23 18:47:00,
2013-08-23 12:52:00,68.4,49.5,29.84,West,270,3.0,4.0,51,0.00,,,0.04,329.0,meteohub,2013-08-23 18:52:00,
2013-08-23 12:57:00,68.4,48.9,29.84,SSW,202,0.0,6.0,50,0.00,,,0.04,179.0,meteohub,2013-08-23 18:57:00,
2013-08-23 13:03:00,68.4,48.4,29.83,SSW,199,1.0,6.0,49,0.00,,,0.04,953.0,meteohub,2013-08-23 19:03:00,
2013-08-23 13:08:00,68.5,49.1,29.83,WNW,289,7.0,7.0,50,0.00,,,0.04,98.0,meteohub,2013-08-23 19:08:00,
2013-08-23 13:13:00,68.4,48.9,29.83,WNW,289,0.0,8.0,50,0.00,,,0.04,118.0,meteohub,2013-08-23 19:13:00,
2013-08-23 13:18:00,67.8,48.0,29.83,SSW,196,0.0,8.0,49,0.00,,,0.04,104.0,meteohub,2013-08-23 19:18:00,
2013-08-23 13:23:00,67.3,48.6,29.83,SSW,197,0.0,8.0,51,0.00,,,0.04,105.0,meteohub,2013-08-23 19:23:00,
2013-08-23 13:29:00,66.6,48.4,29.83,WNW,283,1.0,5.0,52,0.00,,,0.04,109.0,meteohub,2013-08-23 19:29:00,
2013-08-23 13:34:00,66.0,47.8,29.83,WNW,283,5.0,7.0,52,0.00,,,0.04,88.0,meteohub,2013-08-23 19:34:00,
2013-08-23 13:39:00,65.5,48.4,29.84,WNW,283,2.0,7.0,54,0.00,,,0.04,65.0,meteohub,2013-08-23 19:39:00,
2013-08-23 13:44:00,64.8,48.7,29.84,WNW,283,0.0,7.0,56,0.00,,,0.04,65.0,meteohub,2013-08-23 19:44:00,
2013-08-23 13:49:00,64.2,48.7,29.85,WNW,283,3.0,6.0,57,0.00,,,0.04,76.0,meteohub,2013-08-23 19:49:00,
2013-08-23 13:55:00,63.7,49.1,29.85,WNW,283,0.0,6.0,59,0.00,,,0.04,104.0,meteohub,2013-08-23 19:55:00,
2013-08-23 14:00:00,63.1,48.6,29.84,WNW,283,4.0,7.0,59,0.00,,,0.04,137.0,meteohub,2013-08-23 20:00:00,
2013-08-23 14:05:00,63.0,48.9,29.83,WNW,283,0.0,7.0,60,0.00,,,0.04,128.0,meteohub,2013-08-23 20:05:00,
2013-08-23 14:10:00,62.8,49.1,29.83,WNW,283,1.0,4.0,61,0.00,,,0.04,130.0,meteohub,2013-08-23 20:10:00,
2013-08-23 14:15:00,62.8,49.6,29.82,WNW,283,0.0,2.0,62,0.00,,,0.04,144.0,meteohub,2013-08-23 20:15:00,
2013-08-23 14:20:00,62.8,49.1,29.82,WNW,283,0.0,5.0,61,0.00,,,0.04,179.0,meteohub,2013-08-23 20:20:00,
2013-08-23 14:26:00,63.0,49.8,29.81,WNW,283,0.0,5.0,62,0.00,,,0.04,202.0,meteohub,2013-08-23 20:26:00,
2013-08-23 14:31:00,63.3,50.0,29.81,WNW,283,2.0,5.0,62,0.00,,,0.04,225.0,meteohub,2013-08-23 20:31:00,
2013-08-23 14:36:00,63.3,49.6,29.81,WNW,283,0.0,4.0,61,0.00,,,0.04,142.0,meteohub,2013-08-23 20:36:00,
2013-08-23 14:41:00,63.5,49.8,29.81,NW,316,6.0,9.0,61,0.00,,,0.04,116.0,meteohub,2013-08-23 20:41:00,
2013-08-23 14:46:00,63.3,49.6,29.81,NW,316,4.0,9.0,61,0.00,,,0.04,76.0,meteohub,2013-08-23 20:46:00,
2013-08-23 14:52:00,63.1,50.4,29.81,NW,316,4.0,9.0,63,0.00,,,0.04,58.0,meteohub,2013-08-23 20:52:00,
2013-08-23 14:57:00,63.1,51.3,29.80,NW,316,0.0,9.0,65,0.00,,,0.04,63.0,meteohub,2013-08-23 20:57:00,
2013-08-23 15:02:00,63.0,50.5,29.79,NW,316,1.0,9.0,64,0.00,,,0.04,83.0,meteohub,2013-08-23 21:02:00,
2013-08-23 15:07:00,62.8,50.4,29.80,NW,316,0.0,6.0,64,0.00,,,0.04,81.0,meteohub,2013-08-23 21:07:00,
2013-08-23 15:12:00,62.8,50.9,29.80,WNW,298,7.0,7.0,65,0.00,,,0.04,79.0,meteohub,2013-08-23 21:12:00,
2013-08-23 15:18:00,62.8,50.9,29.80,WNW,299,6.0,6.0,65,0.00,,,0.04,90.0,meteohub,2013-08-23 21:18:00,
2013-08-23 15:23:00,62.6,50.7,29.79,WNW,299,0.0,10.0,65,0.00,,,0.04,76.0,meteohub,2013-08-23 21:23:00,
2013-08-23 15:28:00,62.6,50.7,29.79,WNW,299,2.0,10.0,65,0.00,,,0.04,77.0,meteohub,2013-08-23 21:28:00,
2013-08-23 15:33:00,62.6,50.7,29.79,NW,316,5.0,6.0,65,0.00,,,0.04,81.0,meteohub,2013-08-23 21:33:00,
2013-08-23 15:38:00,62.4,49.6,29.79,NW,315,4.0,9.0,63,0.00,,,0.04,63.0,meteohub,2013-08-23 21:38:00,
2013-08-23 15:43:00,62.4,47.5,29.80,WNW,289,10.0,10.0,58,0.00,,,0.04,42.0,meteohub,2013-08-23 21:43:00,
2013-08-23 15:49:00,62.8,47.8,29.80,WNW,297,5.0,12.0,58,0.00,,,0.04,30.0,meteohub,2013-08-23 21:49:00,
2013-08-23 15:54:00,62.8,45.3,29.81,NW,311,7.0,15.0,53,0.00,,,0.04,21.0,meteohub,2013-08-23 21:54:00,
2013-08-23 15:59:00,63.0,42.4,29.81,WNW,299,21.0,21.0,47,0.00,,,0.04,16.0,meteohub,2013-08-23 21:59:00,
2013-08-23 16:04:00,62.2,43.9,29.83,WNW,295,6.0,24.0,51,0.00,,,0.04,14.0,meteohub,2013-08-23 22:04:00,
2013-08-23 16:09:00,61.2,46.2,29.83,North,4,6.0,27.0,58,0.00,,,0.04,23.0,meteohub,2013-08-23 22:09:00,
2013-08-23 16:15:00,60.6,43.0,29.82,East,94,5.0,27.0,52,0.00,,,0.04,47.0,meteohub,2013-08-23 22:15:00,
2013-08-23 16:20:00,60.3,45.0,29.83,NW,324,9.0,27.0,57,0.01,,,0.05,56.0,meteohub,2013-08-23 22:20:00,
2013-08-23 16:25:00,59.4,46.8,29.83,NW,324,5.0,10.0,63,0.01,,,0.05,49.0,meteohub,2013-08-23 22:25:00,
2013-08-23 16:30:00,58.6,46.6,29.83,NNW,327,2.0,10.0,64,0.01,,,0.05,44.0,meteohub,2013-08-23 22:30:00,
2013-08-23 16:35:00,58.3,47.8,29.82,NW,322,1.0,9.0,68,0.01,,,0.05,49.0,meteohub,2013-08-23 22:35:00,
2013-08-23 16:41:00,58.1,48.0,29.82,NW,322,0.0,7.0,69,0.01,,,0.05,60.0,meteohub,2013-08-23 22:41:00,
2013-08-23 16:46:00,58.1,47.1,29.81,NW,322,0.0,7.0,67,0.01,,,0.05,60.0,meteohub,2013-08-23 22:46:00,
2013-08-23 16:51:00,58.5,47.1,29.80,NW,322,1.0,4.0,66,0.01,,,0.05,51.0,meteohub,2013-08-23 22:51:00,
2013-08-23 16:56:00,58.8,50.2,29.80,NW,322,0.0,4.0,73,0.01,,,0.05,63.0,meteohub,2013-08-23 22:56:00,
2013-08-23 17:01:00,58.8,48.7,29.81,NW,322,4.0,4.0,69,0.01,,,0.05,51.0,meteohub,2013-08-23 23:01:00,
2013-08-23 17:06:00,58.8,50.5,29.81,NW,322,0.0,5.0,74,0.01,,,0.05,30.0,meteohub,2013-08-23 23:06:00,
2013-08-23 17:12:00,58.6,50.0,29.81,NW,322,0.0,5.0,73,0.00,,,0.05,30.0,meteohub,2013-08-23 23:12:00,
2013-08-23 17:17:00,58.6,50.7,29.81,NW,322,5.0,5.0,75,0.00,,,0.05,54.0,meteohub,2013-08-23 23:17:00,
2013-08-23 17:22:00,57.9,49.3,29.81,NW,322,4.0,6.0,73,0.00,,,0.05,72.0,meteohub,2013-08-23 23:22:00,
2013-08-23 17:27:00,57.7,50.9,29.80,NW,322,4.0,6.0,78,0.00,,,0.05,63.0,meteohub,2013-08-23 23:27:00,
2013-08-23 17:32:00,58.3,48.2,29.80,NW,310,8.0,8.0,69,0.00,,,0.05,46.0,meteohub,2013-08-23 23:32:00,
2013-08-23 17:37:00,58.8,47.5,29.80,WNW,299,10.0,10.0,66,0.00,,,0.05,28.0,meteohub,2013-08-23 23:37:00,
2013-08-23 17:42:00,59.5,47.3,29.80,WNW,299,7.0,10.0,64,0.00,,,0.05,23.0,meteohub,2013-08-23 23:42:00,
2013-08-23 17:47:00,59.9,45.5,29.80,WNW,294,7.0,10.0,59,0.00,,,0.05,21.0,meteohub,2013-08-23 23:47:00,
2013-08-23 17:52:00,60.4,46.0,29.80,WNW,303,10.0,12.0,59,0.00,,,0.05,21.0,meteohub,2013-08-23 23:52:00,
2013-08-23 17:57:00,60.3,45.9,29.80,NW,312,11.0,14.0,59,0.00,,,0.05,18.0,meteohub,2013-08-23 23:57:00,
2013-08-23 18:02:00,60.1,46.2,29.81,NW,314,11.0,15.0,60,0.00,,,0.05,12.0,meteohub,2013-08-24 00:02:00,
2013-08-23 18:07:00,59.7,45.3,29.80,NW,312,14.0,15.0,59,0.00,,,0.00,9.0,meteohub,2013-08-24 00:07:00,
2013-08-23 18:13:00,59.4,46.4,29.80,NW,309,10.0,16.0,62,0.00,,,0.00,7.0,meteohub,2013-08-24 00:13:00,
2013-08-23 18:18:00,58.5,47.1,29.80,NW,311,14.0,18.0,66,0.00,,,0.00,5.0,meteohub,2013-08-24 00:18:00,
2013-08-23 18:23:00,58.1,44.2,29.81,WNW,297,15.0,18.0,60,0.00,,,0.00,5.0,meteohub,2013-08-24 00:23:00,
2013-08-23 18:28:00,59.2,44.8,29.81,NW,314,13.0,21.0,59,0.00,,,0.00,9.0,meteohub,2013-08-24 00:28:00,
2013-08-23 18:33:00,59.2,44.8,29.80,NW,321,15.0,21.0,59,0.00,,,0.00,16.0,meteohub,2013-08-24 00:33:00,
2013-08-23 18:38:00,58.5,44.6,29.77,ESE,109,7.0,21.0,60,0.00,,,0.00,44.0,meteohub,2013-08-24 00:38:00,
2013-08-23 18:43:00,58.3,46.6,29.77,West,270,0.0,19.0,65,0.01,,,0.01,37.0,meteohub,2013-08-24 00:43:00,
2013-08-23 18:48:00,58.1,46.8,29.78,NW,306,12.0,19.0,66,0.01,,,0.01,62.0,meteohub,2013-08-24 00:48:00,
2013-08-23 18:53:00,57.9,48.2,29.79,NW,305,2.0,15.0,70,0.01,,,0.01,93.0,meteohub,2013-08-24 00:53:00,
2013-08-23 18:58:00,57.9,47.8,29.79,NW,305,2.0,15.0,69,0.01,,,0.01,98.0,meteohub,2013-08-24 00:58:00,
2013-08-23 19:03:00,58.3,47.3,29.79,NW,305,4.0,15.0,67,0.01,,,0.01,91.0,meteohub,2013-08-24 01:03:00,
2013-08-23 19:09:00,58.5,47.1,29.79,NW,305,1.0,12.0,66,0.01,,,0.01,74.0,meteohub,2013-08-24 01:09:00,
2013-08-23 19:14:00,58.6,47.3,29.79,NW,304,0.0,7.0,66,0.01,,,0.01,58.0,meteohub,2013-08-24 01:14:00,
2013-08-23 19:19:00,58.8,47.8,29.79,NW,305,1.0,7.0,67,0.01,,,0.01,40.0,meteohub,2013-08-24 01:19:00,
2013-08-23 19:24:00,58.6,46.9,29.79,NW,304,0.0,5.0,65,0.01,,,0.01,23.0,meteohub,2013-08-24 01:24:00,
2013-08-23 19:30:00,58.5,47.1,29.79,NW,305,0.0,5.0,66,0.01,,,0.01,14.0,meteohub,2013-08-24 01:30:00,
2013-08-23 19:35:00,58.3,47.3,29.79,NW,304,0.0,2.0,67,0.00,,,0.01,9.0,meteohub,2013-08-24 01:35:00,
2013-08-23 19:40:00,57.6,48.9,29.80,NW,304,4.0,5.0,73,0.00,,,0.01,0.0,meteohub,2013-08-24 01:40:00,
2013-08-23 19:46:00,56.7,48.7,29.80,NW,304,3.0,5.0,75,0.00,,,0.01,0.0,meteohub,2013-08-24 01:46:00,
2013-08-23 19:51:00,55.8,48.7,29.79,NW,304,5.0,6.0,77,0.00,,,0.01,0.0,meteohub,2013-08-24 01:51:00,
2013-08-23 19:56:00,54.9,48.6,29.80,NW,305,4.0,6.0,79,0.00,,,0.01,0.0,meteohub,2013-08-24 01:56:00,
2013-08-23 20:01:00,54.5,47.1,29.80,NW,305,5.0,7.0,76,0.00,,,0.01,0.0,meteohub,2013-08-24 02:01:00,
2013-08-23 20:07:00,54.1,47.5,29.80,NW,305,5.0,7.0,78,0.00,,,0.01,0.0,meteohub,2013-08-24 02:07:00,
2013-08-23 20:12:00,53.8,47.1,29.80,NW,305,1.0,7.0,78,0.00,,,0.01,0.0,meteohub,2013-08-24 02:12:00,
2013-08-23 20:17:00,53.6,46.2,29.80,NW,305,3.0,7.0,76,0.00,,,0.01,0.0,meteohub,2013-08-24 02:17:00,
2013-08-23 20:22:00,54.0,46.2,29.80,NW,305,5.0,7.0,75,0.00,,,0.01,0.0,meteohub,2013-08-24 02:22:00,
2013-08-23 20:28:00,54.3,46.2,29.80,NW,316,7.0,8.0,74,0.00,,,0.01,0.0,meteohub,2013-08-24 02:28:00,
2013-08-23 20:33:00,54.3,46.2,29.81,NW,318,5.0,8.0,74,0.00,,,0.01,0.0,meteohub,2013-08-24 02:33:00,
2013-08-23 20:38:00,54.7,46.2,29.80,NW,318,5.0,8.0,73,0.00,,,0.01,0.0,meteohub,2013-08-24 02:38:00,
2013-08-23 20:43:00,54.9,46.0,29.81,NW,319,1.0,8.0,72,0.00,,,0.01,0.0,meteohub,2013-08-24 02:43:00,
2013-08-23 20:49:00,54.9,45.3,29.81,North,4,1.0,7.0,70,0.00,,,0.01,0.0,meteohub,2013-08-24 02:49:00,
2013-08-23 20:54:00,55.0,45.1,29.81,NW,326,4.0,6.0,69,0.00,,,0.01,0.0,meteohub,2013-08-24 02:54:00,
2013-08-23 20:59:00,55.6,45.5,29.81,NNW,327,1.0,7.0,69,0.00,,,0.01,0.0,meteohub,2013-08-24 02:59:00,
2013-08-23 21:04:00,55.6,45.1,29.81,NW,314,4.0,9.0,68,0.00,,,0.01,0.0,meteohub,2013-08-24 03:04:00,
2013-08-23 21:10:00,55.8,45.3,29.80,NW,316,2.0,9.0,68,0.00,,,0.01,0.0,meteohub,2013-08-24 03:10:00,
2013-08-23 21:15:00,55.9,45.5,29.80,NW,316,5.0,9.0,68,0.00,,,0.01,0.0,meteohub,2013-08-24 03:15:00,
2013-08-23 21:20:00,55.6,45.1,29.81,NW,323,2.0,14.0,68,0.00,,,0.01,0.0,meteohub,2013-08-24 03:20:00,
2013-08-23 21:25:00,55.6,45.1,29.81,NW,319,5.0,10.0,68,0.00,,,0.01,0.0,meteohub,2013-08-24 03:25:00,
2013-08-23 21:31:00,55.6,45.1,29.81,NW,319,1.0,10.0,68,0.00,,,0.01,0.0,meteohub,2013-08-24 03:31:00,
2013-08-23 21:36:00,55.8,45.0,29.81,NNW,347,1.0,10.0,67,0.00,,,0.01,0.0,meteohub,2013-08-24 03:36:00,
2013-08-23 21:41:00,55.9,45.1,29.81,North,350,0.0,8.0,67,0.00,,,0.01,0.0,meteohub,2013-08-24 03:41:00,
2013-08-23 21:46:00,55.9,44.8,29.81,North,350,0.0,8.0,66,0.00,,,0.01,0.0,meteohub,2013-08-24 03:46:00,
2013-08-23 21:52:00,55.9,44.8,29.81,North,350,1.0,4.0,66,0.00,,,0.01,0.0,meteohub,2013-08-24 03:52:00,
2013-08-23 21:57:00,56.1,44.1,29.81,North,350,3.0,4.0,64,0.00,,,0.01,0.0,meteohub,2013-08-24 03:57:00,
2013-08-23 22:01:00,56.3,45.1,29.80,North,350,0.0,6.0,66,0.00,,,0.01,0.0,meteohub,2013-08-24 04:01:00,
2013-08-23 22:02:00,56.3,45.5,29.80,North,350,0.0,6.0,67,0.00,,,0.01,0.0,meteohub,2013-08-24 04:02:00,
2013-08-23 22:05:00,56.1,45.0,29.80,North,350,2.0,6.0,66,0.00,,,0.01,0.0,meteohub,2013-08-24 04:05:00,
2013-08-23 22:10:00,55.9,46.8,29.80,North,350,0.0,6.0,71,0.00,,,0.01,0.0,meteohub,2013-08-24 04:10:00,
2013-08-23 22:15:00,55.6,46.8,29.80,North,350,0.0,6.0,72,0.00,,,0.01,0.0,meteohub,2013-08-24 04:15:00,
2013-08-23 22:20:00,55.0,45.5,29.80,North,350,1.0,2.0,70,0.00,,,0.01,0.0,meteohub,2013-08-24 04:20:00,
2013-08-23 22:25:00,55.0,44.2,29.80,North,350,4.0,6.0,67,0.00,,,0.01,0.0,meteohub,2013-08-24 04:25:00,
2013-08-23 22:30:00,55.2,44.4,29.80,North,350,4.0,6.0,67,0.00,,,0.01,0.0,meteohub,2013-08-24 04:30:00,
2013-08-23 22:35:00,55.6,45.5,29.80,NNW,347,6.0,6.0,69,0.00,,,0.01,0.0,meteohub,2013-08-24 04:35:00,
2013-08-23 22:40:00,55.9,46.2,29.81,NW,325,10.0,20.0,70,0.00,,,0.01,0.0,meteohub,2013-08-24 04:40:00,
2013-08-23 22:45:00,55.9,46.2,29.83,NW,325,19.0,21.0,70,0.00,,,0.01,0.0,meteohub,2013-08-24 04:45:00,
2013-08-23 22:50:00,53.2,46.2,29.86,NW,311,26.0,34.0,77,0.08,,,0.09,0.0,meteohub,2013-08-24 04:50:00,
2013-08-23 23:01:00,55.4,44.6,29.80,North,0,6.0,-999.0,67,-99.99,,,-99.99,0.0,meteohub,2013-08-24 05:01:00,
2013-08-23 23:06:00,50.5,46.8,29.83,NW,320,0.0,8.0,87,0.08,,,0.09,0.0,meteohub,2013-08-24 05:06:00,
2013-08-23 23:12:00,50.2,47.1,29.83,NW,320,1.0,8.0,89,0.08,,,0.09,0.0,meteohub,2013-08-24 05:12:00,
2013-08-23 23:17:00,49.8,46.8,29.82,NW,320,0.0,8.0,89,0.08,,,0.09,0.0,meteohub,2013-08-24 05:17:00,
2013-08-23 23:22:00,49.6,47.1,29.82,NW,320,0.0,-999.0,91,0.08,,,0.09,0.0,meteohub,2013-08-24 05:22:00,
2013-08-23 23:28:00,49.6,47.1,29.83,NW,320,1.0,-999.0,91,0.08,,,0.09,0.0,meteohub,2013-08-24 05:28:00,
2013-08-23 23:34:00,49.8,47.3,29.83,NW,316,2.0,-999.0,91,0.08,,,0.09,0.0,meteohub,2013-08-24 05:34:00,
2013-08-23 23:39:00,49.8,47.3,29.83,NW,316,2.0,7.0,91,0.20,,,0.21,0.0,meteohub,2013-08-24 05:39:00,
2013-08-23 23:44:00,49.6,46.8,29.82,NW,316,2.0,8.0,90,0.20,,,0.21,0.0,meteohub,2013-08-24 05:44:00,
2013-08-23 23:49:00,49.6,47.1,29.82,NW,316,0.0,8.0,91,0.19,,,0.21,0.0,meteohub,2013-08-24 05:49:00,
2013-08-23 23:55:00,49.5,46.9,29.81,NW,316,0.0,8.0,91,0.12,,,0.21,0.0,meteohub,2013-08-24 05:55:00,